»·PEaware :: AAL137 KDFW-VHHH

AAL137 :: KDFW-VHHH

FLIGHT INFORMATION

Flight Status: Arrived
Operator:
American Airlines
More flights by this operator :: More flights under this callsign
Pilot: Anonymous 13363 (13363)
Aircraft: BOEING 777-300
(B773)
More flights by this aircraft type
Origin: KDFW Dallas-Ft Worth Intl
United States
Destination: VHHH Hong Kong Chek Lap Kok
Hong Kong
More flights between these airports :: More routes between these airports
Route: +GRABE7 OKM STEEL FSD FAR J515 YWG TULUP YTH DASBA SUTNO PEKMO NAMWE NIKIN G226 RUTIN G913 ARTUN G491 LERMI G491 SULOK G218 TMR B458 WXI A461 LKO A461 LIG R473 NNX R473 WYN W18 NLG W23 ZUH R473 SIERA SIER1G
File this flight plan on PilotEdge
Remarks: PBN / A1B1C1D1L1O1S2 NAV / RNVD1E2A1 DOF / 180315 REG / N713SB EET / KZMP0102 KZKC0128 CZWG0214 CZEG0347 PAZA0704 UHMM0738 UEEE0914 UHMM0915 UIII1125 ZMUB1229 ZBPE1313 ZHWH1417 UHMM1510 ZGZU1514 VHHK1618 RALT / PAGA CODE / VUYSZS OPR / AAL PER / D RMK / TCAS SIMBRIEF
Altitude:
(Current/Filed)
28,000ft
Speed:
(Current/Filed)
494kts
Departed: 15-Mar-18 03:52 PM
Arrived: 16-Mar-18 07:50 AM
Distance/Time
Traveled:
7043nm/15:58
Distance/Time
To Go:
Arrived

Flight Plot

Page will automatically refresh every two minutes.

Flight plan parsing failed; only flown route is shown


Map Options




Map Legend


Flown Route
Filed Route
Departure Airport
Arrival Airport
Navaid (VOR, NDB)
Fix

Horizontal Profiles

Position Reports

Time Latitude Longitude Heading Altitude Ground
Speed
15-Mar-18 15:39 32.897006 -97.046607 0 620ft 0kts
15-Mar-18 15:40 32.897006 -97.046607 0 620ft 0kts
15-Mar-18 15:41 32.897030 -97.046607 0 620ft 1kts
15-Mar-18 15:42 32.899937 -97.046677 357 620ft 12kts
15-Mar-18 15:43 32.902759 -97.047539 1 620ft 10kts
15-Mar-18 15:44 32.905026 -97.047544 359 620ft 0kts
15-Mar-18 15:45 32.905803 -97.047548 359 620ft 6kts
15-Mar-18 15:46 32.908470 -97.047524 0 620ft 13kts
15-Mar-18 15:47 32.912022 -97.047006 0 620ft 12kts
15-Mar-18 15:48 32.915139 -97.046993 358 620ft 10kts
15-Mar-18 15:49 32.915691 -97.049761 270 620ft 8kts
15-Mar-18 15:50 32.915253 -97.050691 180 620ft 2kts
15-Mar-18 15:51 32.894853 -97.050827 179 623ft 159kts
15-Mar-18 15:52 32.848300 -97.054780 192 2242ft 177kts
15-Mar-18 15:53 32.795630 -97.073790 196 3209ft 219kts
15-Mar-18 15:54 32.762756 -97.135475 261 4869ft 248kts
15-Mar-18 15:55 32.772088 -97.221310 284 6664ft 274kts
15-Mar-18 15:56 32.838324 -97.272397 343 8452ft 307kts
15-Mar-18 15:57 32.924163 -97.272346 358 10440ft 313kts
15-Mar-18 15:58 33.017725 -97.256186 20 11103ft 374kts
15-Mar-18 15:59 33.114038 -97.194228 27 12807ft 403kts
15-Mar-18 16:00 33.212345 -97.126413 27 14908ft 416kts
15-Mar-18 16:01 33.314213 -97.056332 27 16881ft 427kts
15-Mar-18 16:02 33.418496 -96.984316 27 18700ft 438kts
15-Mar-18 16:03 33.531669 -96.928122 14 20311ft 445kts
15-Mar-18 16:04 33.651401 -96.882958 14 21820ft 455kts
15-Mar-18 16:05 33.772964 -96.835328 14 23207ft 465kts
15-Mar-18 16:06 33.897464 -96.786476 14 24535ft 474kts
15-Mar-18 16:07 34.023732 -96.736621 14 25778ft 482kts
15-Mar-18 16:08 34.151868 -96.685861 14 26919ft 489kts
15-Mar-18 16:09 34.282632 -96.635304 8 27835ft 496kts
15-Mar-18 16:10 34.420783 -96.627829 352 27856ft 500kts
15-Mar-18 16:11 34.559075 -96.640317 351 27841ft 498kts
15-Mar-18 16:12 34.697922 -96.652453 351 27834ft 499kts
15-Mar-18 16:13 34.836243 -96.664368 351 27874ft 500kts
15-Mar-18 16:14 34.974315 -96.676301 351 29353ft 490kts
15-Mar-18 16:15 35.110683 -96.688052 351 29794ft 495kts
15-Mar-18 16:16 35.246904 -96.700015 351 29813ft 491kts
15-Mar-18 16:17 35.383145 -96.711909 351 29805ft 490kts
15-Mar-18 16:18 35.518735 -96.723765 351 29801ft 485kts
15-Mar-18 16:19 35.652573 -96.735611 351 29774ft 488kts
15-Mar-18 16:20 35.789022 -96.747627 351 29759ft 492kts
15-Mar-18 16:21 35.923396 -96.759480 351 29740ft 484kts
15-Mar-18 16:22 36.059257 -96.771462 351 29743ft 490kts
15-Mar-18 16:23 36.193553 -96.783509 351 29746ft 483kts
15-Mar-18 16:24 36.328145 -96.795560 351 29734ft 491kts
15-Mar-18 16:25 36.464578 -96.807807 351 29743ft 486kts
15-Mar-18 16:26 36.599322 -96.819949 351 29749ft 486kts
15-Mar-18 16:27 36.734210 -96.832141 351 29712ft 486kts
15-Mar-18 16:28 36.869615 -96.844425 351 29705ft 487kts
15-Mar-18 16:29 37.004519 -96.856707 351 29704ft 486kts
15-Mar-18 16:30 37.139862 -96.869075 351 29701ft 486kts
15-Mar-18 16:31 37.274724 -96.881434 351 29699ft 486kts
15-Mar-18 16:32 37.409585 -96.893849 351 29693ft 486kts
15-Mar-18 16:33 37.544839 -96.906341 350 29688ft 486kts
15-Mar-18 16:34 37.679601 -96.918828 350 29683ft 486kts
15-Mar-18 16:35 37.814845 -96.931415 350 29685ft 487kts
15-Mar-18 16:36 37.949841 -96.944020 350 29676ft 487kts
15-Mar-18 16:37 38.084719 -96.956660 350 29666ft 486kts
15-Mar-18 16:38 38.219981 -96.969381 350 29663ft 486kts
15-Mar-18 16:39 38.354802 -96.982117 350 29655ft 487kts
15-Mar-18 16:40 38.489800 -96.994897 350 29653ft 486kts
15-Mar-18 16:41 38.625147 -97.007780 350 29651ft 487kts
15-Mar-18 16:42 38.760105 -97.020670 350 29653ft 487kts
15-Mar-18 16:43 38.895430 -97.033641 350 29652ft 487kts
15-Mar-18 16:44 38.993595 -97.043081 350 29653ft 486kts
15-Mar-18 16:45 39.128422 -97.056091 350 29654ft 486kts
15-Mar-18 16:46 39.263707 -97.069195 350 29651ft 486kts
15-Mar-18 16:47 39.398638 -97.082317 350 29650ft 487kts
15-Mar-18 16:48 39.534034 -97.095527 350 29650ft 487kts
15-Mar-18 16:49 39.668946 -97.108754 350 29657ft 487kts
15-Mar-18 16:50 39.803890 -97.121992 350 29662ft 487kts
15-Mar-18 16:51 39.939470 -97.135413 350 29672ft 487kts
15-Mar-18 16:52 40.075294 -97.141254 357 29676ft 493kts
15-Mar-18 16:53 40.211929 -97.127042 359 29688ft 493kts
15-Mar-18 16:54 40.348908 -97.113281 358 29702ft 492kts
15-Mar-18 16:55 40.485281 -97.100198 358 29712ft 492kts
15-Mar-18 16:56 40.621966 -97.087055 358 29726ft 491kts
15-Mar-18 16:57 40.758058 -97.073908 358 29742ft 491kts
15-Mar-18 16:58 40.893973 -97.060720 358 29761ft 490kts
15-Mar-18 16:59 41.030258 -97.047444 358 29777ft 490kts
15-Mar-18 17:00 41.165892 -97.034177 358 29786ft 489kts
15-Mar-18 17:01 41.301910 -97.020816 358 29806ft 489kts
15-Mar-18 17:02 41.437285 -97.007464 358 29808ft 488kts
15-Mar-18 17:03 41.572554 -96.994066 358 29819ft 488kts
15-Mar-18 17:04 41.708217 -96.980578 358 29819ft 487kts
15-Mar-18 17:05 41.843207 -96.967089 358 29846ft 487kts
15-Mar-18 17:06 41.978658 -96.953501 358 29861ft 487kts
15-Mar-18 17:07 42.113248 -96.939944 358 29866ft 484kts
15-Mar-18 17:08 42.247501 -96.926361 358 29879ft 484kts
15-Mar-18 17:09 42.382224 -96.912673 358 29880ft 484kts
15-Mar-18 17:10 42.516324 -96.898990 358 29886ft 484kts
15-Mar-18 17:11 42.650367 -96.885246 358 29892ft 483kts
15-Mar-18 17:12 42.784990 -96.871403 359 29895ft 487kts
15-Mar-18 17:13 42.921325 -96.857305 359 29910ft 492kts
15-Mar-18 17:14 43.057987 -96.843112 359 29924ft 491kts
15-Mar-18 17:15 43.193872 -96.828939 359 29933ft 490kts
15-Mar-18 17:16 43.329430 -96.814741 359 29947ft 488kts
15-Mar-18 17:17 43.465098 -96.800499 359 29957ft 487kts
15-Mar-18 17:18 43.600004 -96.786202 359 29960ft 486kts
15-Mar-18 17:19 43.734759 -96.780347 353 29962ft 481kts
15-Mar-18 17:20 43.846155 -96.784706 354 29965ft 481kts
15-Mar-18 17:21 44.002139 -96.788559 354 29970ft 481kts
15-Mar-18 17:22 44.113483 -96.790995 354 29982ft 477kts
15-Mar-18 17:23 44.268280 -96.794365 354 29989ft 477kts
15-Mar-18 17:24 44.378815 -96.796778 354 29990ft 477kts
15-Mar-18 17:25 44.534068 -96.800190 354 29998ft 477kts
15-Mar-18 17:26 44.644531 -96.802641 354 30006ft 477kts
15-Mar-18 17:27 44.777437 -96.805571 354 30009ft 476kts
15-Mar-18 17:28 44.931898 -96.809008 355 30013ft 476kts
15-Mar-18 17:29 45.042087 -96.811466 355 30020ft 475kts
15-Mar-18 17:30 45.174560 -96.814446 355 30037ft 474kts
15-Mar-18 17:31 45.306361 -96.817420 355 30050ft 474kts
15-Mar-18 17:32 45.438377 -96.820412 355 30062ft 473kts
15-Mar-18 17:33 45.569776 -96.823405 355 30065ft 472kts
15-Mar-18 17:34 45.700995 -96.826407 355 30068ft 472kts
15-Mar-18 17:35 45.832498 -96.829431 355 30077ft 471kts
15-Mar-18 17:36 45.963503 -96.832457 355 30083ft 471kts
15-Mar-18 17:37 46.094144 -96.835486 355 30085ft 468kts
15-Mar-18 17:38 46.224489 -96.838524 355 30087ft 467kts
15-Mar-18 17:39 46.354375 -96.841568 355 30091ft 467kts
15-Mar-18 17:40 46.484634 -96.844625 355 30096ft 467kts
15-Mar-18 17:41 46.614355 -96.847697 355 30106ft 466kts
15-Mar-18 17:42 46.743919 -96.850747 355 30107ft 466kts
15-Mar-18 17:43 46.873027 -96.864041 351 30112ft 463kts
15-Mar-18 17:44 47.001238 -96.880996 351 30111ft 463kts
15-Mar-18 17:45 47.129840 -96.896859 351 30114ft 463kts
15-Mar-18 17:46 47.257929 -96.912520 351 30123ft 462kts
15-Mar-18 17:47 47.385832 -96.928286 351 30137ft 461kts
15-Mar-18 17:48 47.513846 -96.944150 351 30150ft 460kts
15-Mar-18 17:49 47.641359 -96.960021 351 30159ft 460kts
15-Mar-18 17:50 47.769186 -96.976021 351 30164ft 460kts
15-Mar-18 17:51 47.896590 -96.992046 351 30169ft 460kts
15-Mar-18 17:52 48.023952 -97.008144 351 30174ft 459kts
15-Mar-18 17:53 48.150895 -97.024262 352 30178ft 456kts
15-Mar-18 17:54 48.277279 -97.040392 352 30186ft 456kts
15-Mar-18 17:55 48.403530 -97.056583 352 30193ft 456kts
15-Mar-18 17:56 48.530165 -97.072910 352 30197ft 455kts
15-Mar-18 17:57 48.656285 -97.089182 352 30197ft 455kts
15-Mar-18 17:58 48.782645 -97.105687 352 30199ft 454kts
15-Mar-18 17:59 48.908341 -97.121648 352 30197ft 454kts
15-Mar-18 18:00 49.034064 -97.135735 352 30198ft 453kts
15-Mar-18 18:01 49.160092 -97.150102 352 30201ft 453kts
15-Mar-18 18:02 49.285453 -97.164373 353 30204ft 451kts
15-Mar-18 18:03 49.410994 -97.178772 352 30211ft 451kts
15-Mar-18 18:04 49.536052 -97.193225 353 30217ft 451kts
15-Mar-18 18:05 49.661066 -97.207679 353 30225ft 451kts
15-Mar-18 18:06 49.786357 -97.222331 353 30229ft 450kts
15-Mar-18 18:07 49.911353 -97.236290 356 30232ft 452kts
15-Mar-18 18:08 50.037221 -97.221497 4 30229ft 454kts
15-Mar-18 18:09 50.162142 -97.197131 3 30227ft 450kts
15-Mar-18 18:10 50.286465 -97.174455 3 30226ft 450kts
15-Mar-18 18:11 50.411039 -97.151962 3 30223ft 449kts
15-Mar-18 18:12 50.534933 -97.129360 3 30221ft 448kts
15-Mar-18 18:13 50.659035 -97.106592 3 30219ft 447kts
15-Mar-18 18:14 50.782672 -97.083856 3 30218ft 449kts
15-Mar-18 18:15 50.906860 -97.060836 3 30214ft 454kts
15-Mar-18 18:16 51.034200 -97.037021 3 30214ft 460kts
15-Mar-18 18:17 51.160893 -97.039332 352 30225ft 456kts
15-Mar-18 18:18 51.286667 -97.060195 352 30224ft 454kts
15-Mar-18 18:19 51.412771 -97.079996 352 30225ft 454kts
15-Mar-18 18:20 51.538467 -97.099161 352 30225ft 454kts
15-Mar-18 18:21 51.664567 -97.118554 352 30226ft 454kts
15-Mar-18 18:22 51.790232 -97.138008 352 30225ft 454kts
15-Mar-18 18:23 51.915864 -97.157569 352 30227ft 454kts
15-Mar-18 18:24 52.041857 -97.177306 352 30226ft 453kts
15-Mar-18 18:25 52.166834 -97.196978 352 30229ft 451kts
15-Mar-18 18:26 52.292061 -97.216806 352 30229ft 450kts
15-Mar-18 18:27 52.416696 -97.236659 352 30231ft 450kts
15-Mar-18 18:28 52.541330 -97.256623 352 30232ft 450kts
15-Mar-18 18:29 52.666281 -97.276751 352 30232ft 449kts
15-Mar-18 18:30 52.790587 -97.296891 352 30233ft 449kts
15-Mar-18 18:31 52.914782 -97.317131 352 30233ft 448kts
15-Mar-18 18:32 53.039227 -97.337527 352 30234ft 448kts
15-Mar-18 18:33 53.163127 -97.357949 352 30232ft 447kts
15-Mar-18 18:34 53.287290 -97.378532 352 30232ft 447kts
15-Mar-18 18:35 53.411015 -97.399167 352 30235ft 447kts
15-Mar-18 18:36 53.534550 -97.419891 352 30236ft 446kts
15-Mar-18 18:37 53.658398 -97.440790 352 30238ft 446kts
15-Mar-18 18:38 53.782230 -97.461809 352 30237ft 446kts
15-Mar-18 18:39 53.905727 -97.482893 352 30238ft 446kts
15-Mar-18 18:40 54.029633 -97.504170 352 30239ft 446kts
15-Mar-18 18:41 54.152817 -97.525462 352 30236ft 445kts
15-Mar-18 18:42 54.276375 -97.546942 352 30234ft 445kts
15-Mar-18 18:43 54.399515 -97.568477 352 30229ft 445kts
15-Mar-18 18:44 54.522461 -97.590097 352 30223ft 444kts
15-Mar-18 18:45 54.645702 -97.611922 352 30214ft 444kts
15-Mar-18 18:46 54.768308 -97.633757 351 30204ft 443kts
15-Mar-18 18:47 54.891201 -97.655778 351 30194ft 442kts
15-Mar-18 18:48 55.013476 -97.677821 351 30184ft 442kts
15-Mar-18 18:49 55.135549 -97.699961 351 30174ft 441kts
15-Mar-18 18:50 55.258018 -97.722316 351 30166ft 441kts
15-Mar-18 18:51 55.380070 -97.744714 351 30159ft 441kts
15-Mar-18 18:52 55.502602 -97.767335 351 30149ft 442kts
15-Mar-18 18:53 55.624745 -97.789979 351 30151ft 441kts
15-Mar-18 18:54 55.746826 -97.812909 351 30150ft 442kts
15-Mar-18 18:55 55.869451 -97.835307 351 30150ft 442kts
15-Mar-18 18:56 55.991720 -97.856757 351 30150ft 442kts
15-Mar-18 18:57 56.114460 -97.878530 351 30150ft 442kts
15-Mar-18 18:58 56.236688 -97.900083 351 30151ft 442kts
15-Mar-18 18:59 56.358815 -97.921816 351 30150ft 441kts
15-Mar-18 19:00 56.481107 -97.943792 351 30154ft 441kts
15-Mar-18 19:01 56.602903 -97.965833 351 30155ft 440kts
15-Mar-18 19:02 56.724432 -97.987974 351 30158ft 439kts
15-Mar-18 19:03 56.846360 -98.010330 351 30160ft 441kts
15-Mar-18 19:04 56.968493 -98.032865 351 30146ft 441kts
15-Mar-18 19:05 57.091056 -98.055644 351 30147ft 441kts
15-Mar-18 19:06 57.212967 -98.078454 351 30150ft 441kts
15-Mar-18 19:07 57.334761 -98.101381 351 30149ft 440kts
15-Mar-18 19:08 57.456681 -98.124489 351 30151ft 439kts
15-Mar-18 19:09 57.578160 -98.147669 350 30152ft 438kts
15-Mar-18 19:10 57.699816 -98.171040 350 30153ft 439kts
15-Mar-18 19:11 57.821132 -98.194497 350 30155ft 438kts
15-Mar-18 19:12 57.942123 -98.218055 350 30163ft 437kts
15-Mar-18 19:13 58.063566 -98.241866 350 30166ft 437kts
15-Mar-18 19:14 58.184533 -98.265744 350 30167ft 437kts
15-Mar-18 19:15 58.305893 -98.289865 350 30168ft 437kts
15-Mar-18 19:16 58.427023 -98.314101 350 30505ft 438kts
15-Mar-18 19:17 58.546445 -98.338165 350 31618ft 431kts
15-Mar-18 19:18 58.665748 -98.362369 350 32170ft 430kts
15-Mar-18 19:19 58.784333 -98.386593 350 32169ft 428kts
15-Mar-18 19:20 58.902689 -98.410933 350 32170ft 428kts
15-Mar-18 19:21 59.021487 -98.435529 350 32169ft 428kts
15-Mar-18 19:22 59.139725 -98.460215 350 32165ft 427kts
15-Mar-18 19:23 59.258246 -98.485090 350 32171ft 427kts
15-Mar-18 19:24 59.376273 -98.510040 350 32172ft 426kts
15-Mar-18 19:25 59.494146 -98.535149 350 32176ft 426kts
15-Mar-18 19:26 59.612515 -98.560527 350 32180ft 426kts
15-Mar-18 19:27 59.730204 -98.585951 350 32185ft 425kts
15-Mar-18 19:28 59.848204 -98.611619 350 32189ft 425kts
15-Mar-18 19:29 59.946146 -98.633062 350 32193ft 425kts
15-Mar-18 19:30 60.063616 -98.658951 349 32198ft 424kts
15-Mar-18 19:31 60.180785 -98.684958 349 32203ft 424kts
15-Mar-18 19:32 60.298469 -98.711265 349 32208ft 424kts
15-Mar-18 19:33 60.416152 -98.737768 349 32210ft 425kts
15-Mar-18 19:34 60.533478 -98.764381 349 32216ft 425kts
15-Mar-18 19:35 60.650811 -98.791184 349 32224ft 425kts
15-Mar-18 19:36 60.768612 -98.818310 349 32232ft 425kts
15-Mar-18 19:37 60.886079 -98.845545 349 32241ft 425kts
15-Mar-18 19:38 61.003755 -98.873035 349 32251ft 424kts
15-Mar-18 19:39 61.120947 -98.900615 349 32261ft 425kts
15-Mar-18 19:40 61.238187 -98.928416 349 32271ft 424kts
15-Mar-18 19:41 61.355703 -98.956494 349 32281ft 424kts
15-Mar-18 19:42 61.472820 -98.984685 349 32293ft 424kts
15-Mar-18 19:43 61.590290 -99.013177 349 32304ft 424kts
15-Mar-18 19:44 61.707304 -99.041777 349 32315ft 424kts
15-Mar-18 19:45 61.824393 -99.070602 348 32325ft 424kts
15-Mar-18 19:46 61.941966 -99.099790 348 32338ft 424kts
15-Mar-18 19:47 62.059029 -99.129068 348 32348ft 423kts
15-Mar-18 19:48 62.175557 -99.158441 348 32359ft 422kts
15-Mar-18 19:49 62.292359 -99.188111 348 32370ft 422kts
15-Mar-18 19:50 62.408757 -99.217910 348 32379ft 422kts
15-Mar-18 19:51 62.525231 -99.247961 348 32388ft 422kts
15-Mar-18 19:52 62.642062 -99.278346 348 32398ft 421kts
15-Mar-18 19:53 62.758260 -99.308806 348 32406ft 421kts
15-Mar-18 19:54 62.874360 -99.339480 348 32414ft 420kts
15-Mar-18 19:55 62.990834 -99.370503 348 32421ft 421kts
15-Mar-18 19:56 63.106845 -99.401650 348 32427ft 420kts
15-Mar-18 19:57 63.222674 -99.432999 348 32433ft 420kts
15-Mar-18 19:58 63.338829 -99.464692 348 32439ft 419kts
15-Mar-18 19:59 63.454400 -99.496482 348 32443ft 419kts
15-Mar-18 20:00 63.569959 -99.528527 348 32447ft 419kts
15-Mar-18 20:01 63.685893 -99.560940 347 32451ft 419kts
15-Mar-18 20:02 63.801646 -99.593575 347 32454ft 419kts
15-Mar-18 20:03 63.917278 -99.626447 347 32456ft 419kts
15-Mar-18 20:04 64.033333 -99.659731 347 32458ft 419kts
15-Mar-18 20:05 64.148794 -99.693096 347 32462ft 418kts
15-Mar-18 20:06 64.264241 -99.726732 347 32462ft 419kts
15-Mar-18 20:07 64.379752 -99.760683 347 32483ft 419kts
15-Mar-18 20:08 64.495400 -99.794966 347 32486ft 418kts
15-Mar-18 20:09 64.610662 -99.829421 347 32486ft 418kts
15-Mar-18 20:10 64.725719 -99.864122 347 32487ft 417kts
15-Mar-18 20:11 64.841217 -99.899249 347 32488ft 418kts
15-Mar-18 20:12 64.956169 -99.934216 347 32482ft 417kts
15-Mar-18 20:13 65.070939 -99.969935 347 32467ft 416kts
15-Mar-18 20:14 65.185732 -100.008639 343 32467ft 414kts
15-Mar-18 20:15 65.297422 -100.073466 341 32469ft 413kts
15-Mar-18 20:16 65.408611 -100.140811 341 32471ft 413kts
15-Mar-18 20:17 65.520454 -100.207386 342 32472ft 413kts
15-Mar-18 20:18 65.631997 -100.272746 341 32474ft 412kts
15-Mar-18 20:19 65.743299 -100.339278 341 32476ft 412kts
15-Mar-18 20:20 65.854934 -100.406737 341 32478ft 412kts
15-Mar-18 20:21 65.966109 -100.474579 341 32480ft 412kts
15-Mar-18 20:22 66.077225 -100.543051 341 32481ft 412kts
15-Mar-18 20:23 66.188712 -100.612266 341 32485ft 413kts
15-Mar-18 20:24 66.300050 -100.682064 341 32489ft 413kts
15-Mar-18 20:25 66.411442 -100.752558 341 32491ft 413kts
15-Mar-18 20:26 66.523134 -100.823891 341 32493ft 414kts
15-Mar-18 20:27 66.634664 -100.895776 341 32496ft 414kts
15-Mar-18 20:28 66.746142 -100.968310 341 32499ft 414kts
15-Mar-18 20:29 66.858125 -101.041835 341 32501ft 415kts
15-Mar-18 20:30 66.969870 -101.115926 341 32506ft 415kts
15-Mar-18 20:31 67.081583 -101.190714 340 32509ft 416kts
15-Mar-18 20:32 67.193814 -101.266536 340 32512ft 416kts
15-Mar-18 20:33 67.305576 -101.342783 340 32514ft 416kts
15-Mar-18 20:34 67.417708 -101.420044 340 32521ft 416kts
15-Mar-18 20:35 67.529407 -101.497739 340 32522ft 416kts
15-Mar-18 20:36 67.641073 -101.576167 340 32526ft 416kts
15-Mar-18 20:37 67.753426 -101.655865 340 32529ft 417kts
15-Mar-18 20:38 67.865341 -101.736045 340 32514ft 417kts
15-Mar-18 20:39 67.977194 -101.816983 340 32520ft 417kts
15-Mar-18 20:40 68.089335 -101.898958 339 32525ft 417kts
15-Mar-18 20:41 68.201119 -101.981524 339 32536ft 417kts
15-Mar-18 20:42 68.312808 -102.064817 339 32539ft 417kts
15-Mar-18 20:43 68.425116 -102.149409 339 32542ft 418kts
15-Mar-18 20:44 68.537322 -102.234824 339 32547ft 420kts
15-Mar-18 20:45 68.649566 -102.321187 339 32552ft 419kts
15-Mar-18 20:46 68.762393 -102.408866 339 32554ft 421kts
15-Mar-18 20:47 68.875073 -102.497389 339 32555ft 422kts
15-Mar-18 20:48 68.988280 -102.587259 339 32560ft 422kts
15-Mar-18 20:49 69.101210 -102.677854 339 32565ft 422kts
15-Mar-18 20:50 69.214007 -102.769382 338 32562ft 422kts
15-Mar-18 20:51 69.327724 -102.862608 338 32554ft 425kts
15-Mar-18 20:52 69.440792 -102.956306 338 32564ft 424kts
15-Mar-18 20:53 69.553912 -103.051128 338 32563ft 425kts
15-Mar-18 20:54 69.667719 -103.147524 338 32565ft 425kts
15-Mar-18 20:55 69.781034 -103.244623 338 32561ft 425kts
15-Mar-18 20:56 69.894359 -103.342867 338 32559ft 425kts
15-Mar-18 20:57 70.008104 -103.442634 338 32553ft 427kts
15-Mar-18 20:58 70.121861 -103.543485 338 32548ft 428kts
15-Mar-18 20:59 70.236048 -103.645810 338 32545ft 428kts
15-Mar-18 21:00 70.349973 -103.749312 337 32539ft 428kts
15-Mar-18 21:01 70.463608 -103.853649 337 32540ft 426kts
15-Mar-18 21:02 70.577550 -103.959306 337 32535ft 429kts
15-Mar-18 21:03 70.691327 -104.066309 337 32528ft 429kts
15-Mar-18 21:04 70.805315 -104.174801 337 32527ft 429kts
15-Mar-18 21:05 70.919787 -104.284832 337 32512ft 431kts
15-Mar-18 21:06 71.034122 -104.396264 337 32513ft 432kts
15-Mar-18 21:07 71.148829 -104.509349 337 32508ft 433kts
15-Mar-18 21:08 71.263906 -104.624195 337 32500ft 434kts
15-Mar-18 21:09 71.378734 -104.740297 337 32503ft 434kts
15-Mar-18 21:10 71.493439 -104.857714 336 32498ft 435kts
15-Mar-18 21:11 71.608683 -104.977316 336 32497ft 435kts
15-Mar-18 21:12 71.723648 -105.098061 336 32487ft 437kts
15-Mar-18 21:13 71.838748 -105.220482 336 32460ft 435kts
15-Mar-18 21:14 71.954208 -105.344764 336 32438ft 436kts
15-Mar-18 21:15 72.069189 -105.470339 336 32441ft 439kts
15-Mar-18 21:16 72.184709 -105.598158 336 32436ft 439kts
15-Mar-18 21:17 72.300452 -105.727975 336 32434ft 439kts
15-Mar-18 21:18 72.415838 -105.858802 335 32419ft 439kts
15-Mar-18 21:19 72.530967 -105.991510 335 32422ft 438kts
15-Mar-18 21:20 72.646901 -106.126776 335 32416ft 442kts
15-Mar-18 21:21 72.762790 -106.263900 335 32412ft 441kts
15-Mar-18 21:22 72.879066 -106.403327 335 32419ft 443kts
15-Mar-18 21:23 72.995053 -106.544485 335 32462ft 443kts
15-Mar-18 21:24 73.111892 -106.688644 335 32458ft 448kts
15-Mar-18 21:25 73.229301 -106.835491 335 32456ft 447kts
15-Mar-18 21:26 73.345667 -106.983519 335 32447ft 446kts
15-Mar-18 21:27 73.462821 -107.134467 335 32447ft 447kts
15-Mar-18 21:28 73.579353 -107.286859 335 32446ft 448kts
15-Mar-18 21:29 73.696035 -107.441696 335 32445ft 448kts
15-Mar-18 21:30 73.813246 -107.599646 335 32447ft 449kts
15-Mar-18 21:31 73.930031 -107.759327 335 32446ft 450kts
15-Mar-18 21:32 74.047073 -107.921837 334 32356ft 450kts
15-Mar-18 21:33 74.164152 -108.086930 334 32347ft 450kts
15-Mar-18 21:34 74.280768 -108.253928 334 32348ft 451kts
15-Mar-18 21:35 74.397965 -108.424385 334 32348ft 452kts
15-Mar-18 21:36 74.514951 -108.597248 334 32347ft 453kts
15-Mar-18 21:37 74.632222 -108.773312 333 32347ft 454kts
15-Mar-18 21:38 74.749972 -108.952972 333 32346ft 456kts
15-Mar-18 21:39 74.867261 -109.134858 333 32347ft 456kts
15-Mar-18 21:40 74.985086 -109.320606 333 32348ft 457kts
15-Mar-18 21:41 75.102507 -109.508758 333 32346ft 458kts
15-Mar-18 21:42 75.220252 -109.697972 333 32328ft 459kts
15-Mar-18 21:43 75.338011 -109.895369 333 32301ft 459kts
15-Mar-18 21:44 75.451452 -110.123470 325 32302ft 456kts
15-Mar-18 21:45 75.557316 -110.403050 323 32302ft 457kts
15-Mar-18 21:46 75.663337 -110.687876 323 32304ft 457kts
15-Mar-18 21:47 75.770147 -110.965550 324 32305ft 457kts
15-Mar-18 21:48 75.859194 -111.201452 323 32306ft 457kts
15-Mar-18 21:49 75.982717 -111.539517 323 32306ft 458kts
15-Mar-18 21:50 76.070790 -111.785477 323 32308ft 460kts
15-Mar-18 21:51 76.176725 -112.086421 322 32309ft 459kts
15-Mar-18 21:52 76.281829 -112.390588 322 32310ft 460kts
15-Mar-18 21:53 76.387301 -112.701578 322 32319ft 461kts
15-Mar-18 21:54 76.492304 -113.017068 322 32325ft 462kts
15-Mar-18 21:55 76.597114 -113.338083 321 32320ft 464kts
15-Mar-18 21:56 76.701938 -113.665391 321 32341ft 463kts
15-Mar-18 21:57 76.805973 -113.996603 321 32299ft 463kts
15-Mar-18 21:58 76.910161 -114.334866 320 32254ft 465kts
15-Mar-18 21:59 77.013718 -114.677904 320 32235ft 466kts
15-Mar-18 22:00 77.116989 -115.026889 320 32237ft 467kts
15-Mar-18 22:01 77.220354 -115.383386 319 32182ft 466kts
15-Mar-18 22:02 77.322959 -115.744607 319 32180ft 468kts
15-Mar-18 22:03 77.425399 -116.112818 319 32183ft 469kts
15-Mar-18 22:04 77.527867 -116.488959 318 32186ft 470kts
15-Mar-18 22:05 77.629380 -116.869597 318 32189ft 469kts
15-Mar-18 22:06 77.730761 -117.257989 318 32193ft 470kts
15-Mar-18 22:07 77.831385 -117.651911 317 32193ft 471kts
15-Mar-18 22:08 77.931699 -118.053381 317 32196ft 472kts
15-Mar-18 22:09 78.031794 -118.462962 317 32198ft 472kts
15-Mar-18 22:10 78.131035 -118.878259 316 32199ft 473kts
15-Mar-18 22:11 78.230169 -119.302619 316 32137ft 473kts
15-Mar-18 22:12 78.328173 -119.731906 315 32131ft 472kts
15-Mar-18 22:13 78.425523 -120.168317 315 32133ft 472kts
15-Mar-18 22:14 78.522588 -120.613756 315 32135ft 473kts
15-Mar-18 22:15 78.618900 -121.066347 314 32136ft 474kts
15-Mar-18 22:16 78.714948 -121.528668 313 32138ft 474kts
15-Mar-18 22:17 78.809901 -121.996964 313 32105ft 474kts
15-Mar-18 22:18 78.904416 -122.474695 313 32107ft 476kts
15-Mar-18 22:19 78.998528 -122.962357 312 32108ft 477kts
15-Mar-18 22:20 79.091660 -123.457331 312 32109ft 476kts
15-Mar-18 22:21 79.184380 -123.962828 311 32110ft 477kts
15-Mar-18 22:22 79.275885 -124.474823 311 32134ft 477kts
15-Mar-18 22:23 79.366765 -124.996764 310 32113ft 478kts
15-Mar-18 22:24 79.457360 -125.531110 310 32833ft 481kts
15-Mar-18 22:25 79.547195 -126.075473 309 33558ft 483kts
15-Mar-18 22:26 79.636446 -126.631375 309 34119ft 483kts
15-Mar-18 22:27 79.724569 -127.195678 308 34122ft 481kts
15-Mar-18 22:28 79.811463 -127.768002 308 34123ft 482kts
15-Mar-18 22:29 79.897691 -128.352347 307 34122ft 482kts
15-Mar-18 22:30 79.984787 -128.935331 307 34123ft 482kts
15-Mar-18 22:31 80.067232 -129.545815 305 34124ft 484kts
15-Mar-18 22:32 80.147765 -130.172620 300 34119ft 481kts
15-Mar-18 22:33 80.213351 -130.855137 296 34123ft 482kts
15-Mar-18 22:34 80.274946 -131.556370 294 34140ft 482kts
15-Mar-18 22:35 80.342119 -132.245874 301 34143ft 484kts
15-Mar-18 22:36 80.411386 -132.932815 296 34117ft 483kts
15-Mar-18 22:37 80.474075 -133.651300 295 34139ft 484kts
15-Mar-18 22:38 80.535419 -134.376012 294 34164ft 484kts
15-Mar-18 22:39 80.595411 -135.110579 293 34163ft 484kts
15-Mar-18 22:40 80.654059 -135.856640 293 34161ft 485kts
15-Mar-18 22:41 80.711060 -136.611122 292 34185ft 486kts
15-Mar-18 22:42 80.766523 -137.375504 291 34187ft 486kts
15-Mar-18 22:43 80.820607 -138.152486 291 34208ft 486kts
15-Mar-18 22:44 80.872820 -138.935489 290 34206ft 486kts
15-Mar-18 22:45 80.927489 -139.720393 288 34205ft 486kts
15-Mar-18 22:46 80.972893 -140.528363 288 34188ft 487kts
15-Mar-18 22:47 81.013145 -141.350787 279 34186ft 485kts
15-Mar-18 22:48 81.034286 -142.205473 275 34183ft 485kts
15-Mar-18 22:49 81.047485 -143.065264 271 34180ft 484kts
15-Mar-18 22:50 81.074409 -143.916292 283 34169ft 487kts
15-Mar-18 22:51 81.101489 -144.769716 276 34172ft 486kts
15-Mar-18 22:52 81.118357 -145.636881 274 34170ft 486kts
15-Mar-18 22:53 81.133720 -146.509470 274 34172ft 487kts
15-Mar-18 22:54 81.147226 -147.382664 273 34170ft 487kts
15-Mar-18 22:55 81.158765 -148.261747 272 34149ft 487kts
15-Mar-18 22:56 81.168233 -149.140374 271 34150ft 488kts
15-Mar-18 22:57 81.175652 -150.021444 270 34139ft 488kts
15-Mar-18 22:58 81.181028 -150.906167 270 34086ft 488kts
15-Mar-18 22:59 81.184329 -151.790206 268 34069ft 488kts
15-Mar-18 23:00 81.185567 -152.674898 268 34053ft 489kts
15-Mar-18 23:01 81.184725 -153.562940 267 34051ft 488kts
15-Mar-18 23:02 81.181821 -154.446563 266 34051ft 489kts
15-Mar-18 23:03 81.176815 -155.334612 265 34049ft 489kts
15-Mar-18 23:04 81.169757 -156.218213 264 34047ft 489kts
15-Mar-18 23:05 81.160643 -157.099673 263 34049ft 489kts
15-Mar-18 23:06 81.149402 -157.984368 262 34048ft 490kts
15-Mar-18 23:07 81.136142 -158.863585 261 34045ft 490kts
15-Mar-18 23:08 81.120772 -159.743302 261 34046ft 490kts
15-Mar-18 23:09 81.103416 -160.616695 260 34067ft 490kts
15-Mar-18 23:10 81.084030 -161.486739 259 34109ft 490kts
15-Mar-18 23:11 81.062570 -162.355240 258 34093ft 490kts
15-Mar-18 23:12 81.039172 -163.216778 258 34090ft 490kts
15-Mar-18 23:13 81.013798 -164.073823 256 34090ft 490kts
15-Mar-18 23:14 80.986355 -164.928931 256 34147ft 490kts
15-Mar-18 23:15 80.957050 -165.776098 255 34154ft 490kts
15-Mar-18 23:16 80.925825 -166.617537 254 34160ft 490kts
15-Mar-18 23:17 80.896227 -167.461966 255 34165ft 490kts
15-Mar-18 23:18 80.858760 -168.285985 251 34176ft 490kts
15-Mar-18 23:19 80.823833 -169.114687 258 34173ft 492kts
15-Mar-18 23:20 80.804180 -169.961156 259 34173ft 492kts
15-Mar-18 23:21 80.777690 -170.798499 254 34190ft 491kts
15-Mar-18 23:22 80.756653 -171.639884 266 34189ft 495kts
15-Mar-18 23:23 80.745063 -172.489101 259 34182ft 493kts
15-Mar-18 23:24 80.720099 -173.323302 256 34153ft 492kts
15-Mar-18 23:25 80.692904 -174.155508 256 34124ft 492kts
15-Mar-18 23:26 80.664239 -174.980398 255 34130ft 492kts
15-Mar-18 23:27 80.633625 -175.802959 254 34129ft 492kts
15-Mar-18 23:28 80.601252 -176.616747 253 34160ft 492kts
15-Mar-18 23:29 80.566998 -177.425839 252 34192ft 493kts
15-Mar-18 23:30 80.530799 -178.231269 252 34181ft 493kts
15-Mar-18 23:31 80.492891 -179.028138 251 34179ft 492kts
15-Mar-18 23:32 80.453187 -179.818756 250 34178ft 493kts
15-Mar-18 23:33 80.411565 179.394385 249 34200ft 493kts
15-Mar-18 23:34 80.368323 178.616924 248 34218ft 493kts
15-Mar-18 23:35 80.323185 177.843885 247 34198ft 493kts
15-Mar-18 23:36 80.276527 177.081005 247 34122ft 492kts
15-Mar-18 23:37 80.228301 176.327020 246 34119ft 492kts
15-Mar-18 23:38 80.178280 175.578340 245 34111ft 491kts
15-Mar-18 23:39 80.126818 174.839878 245 34102ft 491kts
15-Mar-18 23:40 80.073707 174.108297 243 34109ft 491kts
15-Mar-18 23:41 80.018878 173.382688 243 34102ft 492kts
15-Mar-18 23:42 79.962668 172.667071 242 34103ft 492kts
15-Mar-18 23:43 79.904617 171.955648 241 34065ft 492kts
15-Mar-18 23:44 79.845337 171.255502 241 34071ft 492kts
15-Mar-18 23:45 79.784534 170.562979 240 34076ft 493kts
15-Mar-18 23:46 79.722091 169.876487 239 34090ft 492kts
15-Mar-18 23:47 79.658463 169.200807 239 34088ft 493kts
15-Mar-18 23:48 79.593311 168.532026 238 34089ft 493kts
15-Mar-18 23:49 79.526605 167.869762 237 34089ft 493kts
15-Mar-18 23:50 79.458765 167.217905 236 34089ft 493kts
15-Mar-18 23:51 79.389623 166.574515 236 34088ft 493kts
15-Mar-18 23:52 79.318977 165.937533 235 34093ft 493kts
15-Mar-18 23:53 79.247239 165.310414 235 34077ft 493kts
15-Mar-18 23:54 79.174055 164.689899 234 34078ft 493kts
15-Mar-18 23:55 79.099825 164.079099 233 34078ft 493kts
15-Mar-18 23:56 79.024439 163.476770 233 34078ft 493kts
15-Mar-18 23:57 78.947600 162.880415 232 34078ft 493kts
15-Mar-18 23:58 78.882921 162.391417 232 34078ft 493kts
15-Mar-18 23:59 78.792964 161.708894 232 34070ft 493kts
16-Mar-18 00:00 78.711393 161.142621 230 34069ft 493kts
16-Mar-18 00:01 78.629912 160.583102 229 34068ft 492kts
16-Mar-18 00:02 78.546276 160.033430 228 34068ft 492kts
16-Mar-18 00:03 78.459896 159.502912 226 34066ft 491kts
16-Mar-18 00:04 78.391103 159.050319 232 34065ft 495kts
16-Mar-18 00:05 78.296050 158.410804 228 34067ft 493kts
16-Mar-18 00:06 78.224377 157.973885 227 34069ft 493kts
16-Mar-18 00:07 78.137567 157.456254 227 34068ft 493kts
16-Mar-18 00:08 78.049604 156.944457 226 34063ft 493kts
16-Mar-18 00:09 77.960939 156.441164 226 34048ft 494kts
16-Mar-18 00:10 77.871203 155.944214 225 33809ft 494kts
16-Mar-18 00:11 77.780469 155.453795 225 33761ft 494kts
16-Mar-18 00:12 77.689185 154.972127 225 33760ft 494kts
16-Mar-18 00:13 77.596838 154.496245 224 33758ft 493kts
16-Mar-18 00:14 77.504002 154.029026 223 33718ft 493kts
16-Mar-18 00:15 77.410449 153.568967 223 33711ft 493kts
16-Mar-18 00:16 77.315837 153.114247 223 33708ft 493kts
16-Mar-18 00:17 77.220751 152.667520 222 33712ft 492kts
16-Mar-18 00:18 77.124989 152.227597 222 33712ft 492kts
16-Mar-18 00:19 77.028249 151.792963 221 33712ft 493kts
16-Mar-18 00:20 76.930998 151.365528 221 33711ft 492kts
16-Mar-18 00:21 76.832732 150.942990 221 33709ft 493kts
16-Mar-18 00:22 76.734169 150.528156 220 33775ft 492kts
16-Mar-18 00:23 76.634870 150.119076 220 33901ft 493kts
16-Mar-18 00:24 76.534693 149.715019 220 33901ft 493kts
16-Mar-18 00:25 76.434088 149.317638 219 33901ft 492kts
16-Mar-18 00:26 76.332614 148.925087 219 33900ft 493kts
16-Mar-18 00:27 76.230882 148.539505 219 33902ft 492kts
16-Mar-18 00:28 76.128590 148.159654 218 33903ft 492kts
16-Mar-18 00:29 76.025374 147.783998 218 33903ft 492kts
16-Mar-18 00:30 75.922086 147.415515 217 33903ft 491kts
16-Mar-18 00:31 75.818328 147.052588 217 33904ft 491kts
16-Mar-18 00:32 75.713697 146.693681 217 33904ft 491kts
16-Mar-18 00:33 75.608826 146.340885 217 33905ft 491kts
16-Mar-18 00:34 75.502983 145.991601 216 33903ft 492kts
16-Mar-18 00:35 75.397116 145.648788 216 33907ft 491kts
16-Mar-18 00:36 75.290731 145.310843 216 33906ft 491kts
16-Mar-18 00:37 75.183551 144.976627 216 33906ft 491kts
16-Mar-18 00:38 75.076306 144.648363 215 33906ft 491kts
16-Mar-18 00:39 74.968611 144.324720 215 33907ft 491kts
16-Mar-18 00:40 74.860202 144.004837 215 33907ft 491kts
16-Mar-18 00:41 74.751647 143.690239 215 33907ft 491kts
16-Mar-18 00:42 74.642165 143.378638 215 33911ft 491kts
16-Mar-18 00:43 74.532783 143.072725 214 33912ft 491kts
16-Mar-18 00:44 74.422976 142.771025 214 33913ft 490kts
16-Mar-18 00:45 74.312430 142.472540 214 33914ft 490kts
16-Mar-18 00:46 74.201859 142.179139 214 33914ft 490kts
16-Mar-18 00:47 74.090976 141.889880 213 33915ft 490kts
16-Mar-18 00:48 73.979336 141.603599 213 33915ft 490kts
16-Mar-18 00:49 73.867891 141.322566 213 33915ft 489kts
16-Mar-18 00:50 73.756750 141.042425 213 33917ft 489kts
16-Mar-18 00:51 73.643896 140.770495 212 33916ft 488kts
16-Mar-18 00:52 73.536092 140.478414 222 33920ft 491kts
16-Mar-18 00:53 73.439912 140.135734 223 33918ft 491kts
16-Mar-18 00:54 73.342910 139.800440 222 33918ft 491kts
16-Mar-18 00:55 73.247400 139.462416 224 33920ft 491kts
16-Mar-18 00:56 73.150170 139.130082 223 33920ft 490kts
16-Mar-18 00:57 73.052571 138.804636 222 33922ft 489kts
16-Mar-18 00:58 72.954383 138.482683 222 33921ft 489kts
16-Mar-18 00:59 72.855582 138.163971 222 33922ft 489kts
16-Mar-18 01:00 72.756585 137.849721 222 33923ft 488kts
16-Mar-18 01:01 72.656853 137.538203 221 33925ft 488kts
16-Mar-18 01:02 72.556985 137.231162 221 33925ft 488kts
16-Mar-18 01:03 72.456596 136.927332 221 33925ft 489kts
16-Mar-18 01:04 72.356217 136.623032 221 33927ft 488kts
16-Mar-18 01:05 72.254431 136.328073 220 33927ft 488kts
16-Mar-18 01:06 72.152794 136.035244 221 33929ft 487kts
16-Mar-18 01:07 72.050758 135.743702 220 33929ft 487kts
16-Mar-18 01:08 71.948570 135.455924 220 33930ft 487kts
16-Mar-18 01:09 71.847701 135.163733 220 33932ft 487kts
16-Mar-18 01:10 71.744455 134.883104 220 33932ft 488kts
16-Mar-18 01:11 71.641867 134.601463 220 33934ft 488kts
16-Mar-18 01:12 71.538015 134.323673 219 33935ft 489kts
16-Mar-18 01:13 71.434292 134.047589 219 33935ft 489kts
16-Mar-18 01:14 71.330060 133.775310 219 33935ft 488kts
16-Mar-18 01:15 71.225407 133.504647 220 33978ft 488kts
16-Mar-18 01:16 71.122204 133.231870 219 33989ft 488kts
16-Mar-18 01:17 71.017761 132.965970 219 33990ft 487kts
16-Mar-18 01:18 70.912510 132.702477 218 33990ft 487kts
16-Mar-18 01:19 70.807264 132.442772 218 33989ft 487kts
16-Mar-18 01:20 70.701333 132.185015 218 33989ft 487kts
16-Mar-18 01:21 70.595474 131.931006 218 33989ft 487kts
16-Mar-18 01:22 70.489352 131.679817 217 33989ft 486kts
16-Mar-18 01:23 70.382457 131.430290 217 33989ft 486kts
16-Mar-18 01:24 70.275599 131.184211 217 33989ft 487kts
16-Mar-18 01:25 70.167879 130.939488 217 34075ft 487kts
16-Mar-18 01:26 70.060200 130.698163 217 34075ft 487kts
16-Mar-18 01:27 69.952558 130.460048 216 34073ft 485kts
16-Mar-18 01:28 69.844279 130.223705 216 34071ft 485kts
16-Mar-18 01:29 69.736065 129.990588 216 34070ft 486kts
16-Mar-18 01:30 69.627560 129.759870 216 34069ft 485kts
16-Mar-18 01:31 69.518471 129.530429 216 34059ft 485kts
16-Mar-18 01:32 69.409481 129.303040 215 34059ft 487kts
16-Mar-18 01:33 69.299537 129.079837 215 34058ft 487kts
16-Mar-18 01:34 69.185518 128.872676 209 34057ft 487kts
16-Mar-18 01:35 69.067904 128.683827 210 34162ft 489kts
16-Mar-18 01:36 68.950360 128.492764 211 35120ft 487kts
16-Mar-18 01:37 68.834298 128.300380 210 36035ft 484kts
16-Mar-18 01:38 68.719334 128.115300 210 36054ft 477kts
16-Mar-18 01:39 68.603900 127.932126 210 36052ft 478kts
16-Mar-18 01:40 68.488641 127.751438 210 36052ft 478kts
16-Mar-18 01:41 68.373235 127.572685 210 36051ft 478kts
16-Mar-18 01:42 68.257287 127.395196 209 36047ft 478kts
16-Mar-18 01:43 68.141522 127.220068 209 36043ft 478kts
16-Mar-18 01:44 68.024944 127.045758 209 36043ft 479kts
16-Mar-18 01:45 67.908651 126.873886 209 36042ft 479kts
16-Mar-18 01:46 67.792032 126.703497 209 36042ft 479kts
16-Mar-18 01:47 67.674903 126.534337 209 36041ft 479kts
16-Mar-18 01:48 67.557965 126.367370 209 36040ft 479kts
16-Mar-18 01:49 67.440889 126.202086 209 36039ft 479kts
16-Mar-18 01:50 67.323203 126.037803 209 36039ft 479kts
16-Mar-18 01:51 67.205716 125.875632 209 36038ft 479kts
16-Mar-18 01:52 67.087617 125.714427 209 36038ft 480kts
16-Mar-18 01:53 66.969488 125.554965 209 36037ft 480kts
16-Mar-18 01:54 66.851174 125.397000 208 36036ft 481kts
16-Mar-18 01:55 66.732201 125.239897 208 36036ft 481kts
16-Mar-18 01:56 66.613362 125.084672 208 36036ft 482kts
16-Mar-18 01:57 66.494315 124.930866 208 36035ft 482kts
16-Mar-18 01:58 66.374590 124.777846 208 36034ft 482kts
16-Mar-18 01:59 66.255136 124.626794 208 36034ft 482kts
16-Mar-18 02:00 66.135016 124.476540 208 36034ft 482kts
16-Mar-18 02:01 66.015390 124.327134 208 36033ft 483kts
16-Mar-18 02:02 65.895028 124.180656 208 36033ft 483kts
16-Mar-18 02:03 65.774285 124.034826 208 36032ft 484kts
16-Mar-18 02:04 65.653443 123.890985 208 36032ft 484kts
16-Mar-18 02:05 65.532504 123.748660 208 36032ft 484kts
16-Mar-18 02:06 65.411330 123.604502 208 36032ft 485kts
16-Mar-18 02:07 65.290108 123.463034 208 36032ft 485kts
16-Mar-18 02:08 65.168100 123.322576 208 36032ft 486kts
16-Mar-18 02:09 65.046378 123.183859 208 36031ft 486kts
16-Mar-18 02:10 64.924420 123.046351 208 36031ft 486kts
16-Mar-18 02:11 64.801799 122.909463 208 36030ft 487kts
16-Mar-18 02:12 64.679355 122.774145 208 36031ft 487kts
16-Mar-18 02:13 64.556927 122.639464 208 36017ft 487kts
16-Mar-18 02:14 64.454247 122.528042 208 36016ft 487kts
16-Mar-18 02:15 64.331340 122.396679 208 36017ft 487kts
16-Mar-18 02:16 64.187158 122.244172 208 36017ft 488kts
16-Mar-18 02:17 64.084423 122.136738 208 36017ft 488kts
16-Mar-18 02:18 63.961457 122.006732 208 36017ft 488kts
16-Mar-18 02:19 63.816742 121.858181 207 36017ft 488kts
16-Mar-18 02:20 63.710870 121.766724 197 36019ft 494kts
16-Mar-18 02:21 63.575401 121.709293 193 36017ft 496kts
16-Mar-18 02:22 63.439308 121.652836 194 36017ft 496kts
16-Mar-18 02:23 63.303895 121.594698 194 36017ft 497kts
16-Mar-18 02:24 63.168138 121.537299 194 36017ft 497kts
16-Mar-18 02:25 63.031919 121.480362 194 36005ft 497kts
16-Mar-18 02:26 62.895974 121.424082 194 36004ft 498kts
16-Mar-18 02:27 62.759335 121.367699 194 36005ft 499kts
16-Mar-18 02:28 62.622976 121.312570 194 36005ft 499kts
16-Mar-18 02:29 62.486546 121.257865 194 36006ft 499kts
16-Mar-18 02:30 62.349600 121.203606 194 36004ft 499kts
16-Mar-18 02:31 62.213142 121.149194 194 36027ft 500kts
16-Mar-18 02:32 62.076378 121.096014 194 36028ft 500kts
16-Mar-18 02:33 61.939217 121.042417 195 36028ft 501kts
16-Mar-18 02:34 61.802068 120.989422 195 36028ft 502kts
16-Mar-18 02:35 61.664788 120.936741 195 36028ft 502kts
16-Mar-18 02:36 61.526961 120.884395 195 36029ft 502kts
16-Mar-18 02:37 61.389482 120.832447 195 36028ft 503kts
16-Mar-18 02:38 61.251232 120.780169 195 36031ft 504kts
16-Mar-18 02:39 61.113445 120.728624 195 36038ft 504kts
16-Mar-18 02:40 60.975462 120.677895 195 36040ft 505kts
16-Mar-18 02:41 60.836640 120.627377 195 36040ft 506kts
16-Mar-18 02:42 60.697898 120.579207 195 36040ft 506kts
16-Mar-18 02:43 60.558783 120.530870 195 36037ft 508kts
16-Mar-18 02:44 60.419124 120.483253 195 36038ft 508kts
16-Mar-18 02:45 60.285606 120.404558 206 36039ft 498kts
16-Mar-18 02:46 60.154787 120.310212 205 36040ft 499kts
16-Mar-18 02:47 60.023798 120.219255 205 36041ft 499kts
16-Mar-18 02:48 59.892667 120.128623 205 36041ft 499kts
16-Mar-18 02:49 59.761066 120.039033 205 36041ft 499kts
16-Mar-18 02:50 59.629627 119.950333 205 36042ft 499kts
16-Mar-18 02:51 59.498249 119.862418 205 36042ft 499kts
16-Mar-18 02:52 59.366398 119.774404 205 36042ft 499kts
16-Mar-18 02:53 59.234790 119.687984 205 36042ft 499kts
16-Mar-18 02:54 59.103169 119.602282 205 36043ft 498kts
16-Mar-18 02:55 58.971082 119.517249 205 36043ft 499kts
16-Mar-18 02:56 58.839520 119.433226 205 36044ft 499kts
16-Mar-18 02:57 58.707371 119.348108 205 36045ft 500kts
16-Mar-18 02:58 58.575368 119.264961 205 36044ft 500kts
16-Mar-18 02:59 58.443232 119.182488 204 36045ft 500kts
16-Mar-18 03:00 58.310391 119.101232 204 36045ft 500kts
16-Mar-18 03:01 58.178177 119.020058 204 36045ft 500kts
16-Mar-18 03:02 58.045666 118.940241 204 36046ft 500kts
16-Mar-18 03:03 57.912575 118.860785 204 36045ft 500kts
16-Mar-18 03:04 57.780180 118.781752 204 36045ft 500kts
16-Mar-18 03:05 57.647087 118.703708 204 36045ft 500kts
16-Mar-18 03:06 57.514381 118.626335 204 36045ft 500kts
16-Mar-18 03:07 57.381737 118.549671 204 36043ft 499kts
16-Mar-18 03:08 57.248917 118.473349 204 36044ft 498kts
16-Mar-18 03:09 57.116737 118.396784 204 36043ft 497kts
16-Mar-18 03:10 56.984608 118.322097 204 36043ft 497kts
16-Mar-18 03:11 56.850895 118.252610 200 36043ft 502kts
16-Mar-18 03:12 56.714846 118.197817 200 36033ft 500kts
16-Mar-18 03:13 56.579063 118.140955 200 36029ft 498kts
16-Mar-18 03:14 56.444320 118.083914 200 36028ft 498kts
16-Mar-18 03:15 56.309670 118.027779 200 36028ft 497kts
16-Mar-18 03:16 56.174750 117.971967 200 36028ft 496kts
16-Mar-18 03:17 56.040461 117.916554 200 36027ft 496kts
16-Mar-18 03:18 55.906046 117.861944 200 36026ft 496kts
16-Mar-18 03:19 55.771202 117.806907 200 36026ft 496kts
16-Mar-18 03:20 55.636844 117.752436 200 36025ft 496kts
16-Mar-18 03:21 55.501803 117.698137 199 36025ft 497kts
16-Mar-18 03:22 55.367065 117.644433 199 36024ft 497kts
16-Mar-18 03:23 55.232226 117.591499 199 36024ft 497kts
16-Mar-18 03:24 55.097141 117.538400 199 36022ft 497kts
16-Mar-18 03:25 54.962324 117.486042 198 36021ft 497kts
16-Mar-18 03:26 54.827411 117.434334 198 36020ft 497kts
16-Mar-18 03:27 54.691864 117.382505 198 36019ft 497kts
16-Mar-18 03:28 54.556813 117.330823 198 36019ft 498kts
16-Mar-18 03:29 54.421090 117.279543 198 36018ft 499kts
16-Mar-18 03:30 54.285612 117.228735 198 36016ft 499kts
16-Mar-18 03:31 54.150177 117.178285 198 36016ft 499kts
16-Mar-18 03:32 54.014249 117.127991 198 36015ft 499kts
16-Mar-18 03:33 53.878694 117.078165 197 36014ft 499kts
16-Mar-18 03:34 53.743287 117.028728 197 36013ft 499kts
16-Mar-18 03:35 53.607251 116.979382 197 36011ft 499kts
16-Mar-18 03:36 53.471703 116.930302 197 36010ft 499kts
16-Mar-18 03:37 53.335655 116.881724 197 36009ft 498kts
16-Mar-18 03:38 53.200079 116.833605 197 36009ft 499kts
16-Mar-18 03:39 53.064514 116.786025 197 36008ft 498kts
16-Mar-18 03:40 52.928448 116.738601 197 36007ft 498kts
16-Mar-18 03:41 52.792872 116.691142 197 36011ft 498kts
16-Mar-18 03:42 52.657283 116.644125 197 36010ft 498kts
16-Mar-18 03:43 52.521232 116.597347 197 36009ft 498kts
16-Mar-18 03:44 52.385625 116.551033 197 36008ft 498kts
16-Mar-18 03:45 52.249456 116.504815 197 36008ft 498kts
16-Mar-18 03:46 52.113904 116.459096 196 36017ft 498kts
16-Mar-18 03:47 51.978341 116.413648 196 36008ft 498kts
16-Mar-18 03:48 51.842102 116.368271 196 36007ft 498kts
16-Mar-18 03:49 51.706436 116.323352 196 36007ft 498kts
16-Mar-18 03:50 51.570559 116.278645 196 36008ft 499kts
16-Mar-18 03:51 51.434281 116.234074 196 36008ft 499kts
16-Mar-18 03:52 51.298547 116.189953 196 36008ft 498kts
16-Mar-18 03:53 51.162246 116.145909 196 36015ft 499kts
16-Mar-18 03:54 51.026291 116.102242 197 36016ft 499kts
16-Mar-18 03:55 50.890387 116.058822 197 36020ft 498kts
16-Mar-18 03:56 50.753876 116.015379 197 36022ft 499kts
16-Mar-18 03:57 50.617958 115.972614 197 36024ft 499kts
16-Mar-18 03:58 50.482159 115.929640 197 36027ft 498kts
16-Mar-18 03:59 50.345976 115.886944 197 36029ft 498kts
16-Mar-18 04:00 50.209986 115.844754 197 36032ft 498kts
16-Mar-18 04:01 50.073650 115.802811 197 36034ft 499kts
16-Mar-18 04:02 49.937555 115.761410 197 36037ft 499kts
16-Mar-18 04:03 49.807766 115.696121 209 36041ft 487kts
16-Mar-18 04:04 49.682435 115.614793 208 36043ft 488kts
16-Mar-18 04:05 49.556847 115.536532 209 36046ft 487kts
16-Mar-18 04:06 49.431274 115.458393 208 36049ft 486kts
16-Mar-18 04:07 49.305416 115.381016 209 36053ft 486kts
16-Mar-18 04:08 49.179858 115.304288 209 36059ft 486kts
16-Mar-18 04:09 49.054073 115.227858 209 36060ft 485kts
16-Mar-18 04:10 48.928827 115.152165 209 36063ft 484kts
16-Mar-18 04:11 48.803702 115.076950 209 36067ft 484kts
16-Mar-18 04:12 48.678215 115.001912 209 36075ft 483kts
16-Mar-18 04:13 48.553404 114.927693 209 36079ft 483kts
16-Mar-18 04:14 48.428562 114.853831 209 36082ft 482kts
16-Mar-18 04:15 48.303554 114.780011 210 36087ft 481kts
16-Mar-18 04:16 48.178940 114.707269 210 36090ft 481kts
16-Mar-18 04:17 48.051680 114.640108 205 36068ft 489kts
16-Mar-18 04:18 47.921429 114.583758 206 36071ft 485kts
16-Mar-18 04:19 47.792229 114.526008 206 36072ft 485kts
16-Mar-18 04:20 47.662780 114.467561 206 36078ft 485kts
16-Mar-18 04:21 47.533610 114.409896 206 36082ft 485kts
16-Mar-18 04:22 47.404397 114.352570 206 36085ft 485kts
16-Mar-18 04:23 47.274804 114.295332 206 36089ft 485kts
16-Mar-18 04:24 47.145582 114.238563 206 36089ft 485kts
16-Mar-18 04:25 47.016113 114.181971 206 36096ft 483kts
16-Mar-18 04:26 46.887368 114.125981 206 36100ft 483kts
16-Mar-18 04:27 46.758727 114.070089 206 36103ft 483kts
16-Mar-18 04:28 46.629607 114.014615 206 36104ft 482kts
16-Mar-18 04:29 46.522408 113.968753 207 36109ft 481kts
16-Mar-18 04:30 46.394196 113.914308 206 36112ft 481kts
16-Mar-18 04:31 46.244031 113.850959 206 36142ft 481kts
16-Mar-18 04:32 46.115863 113.796767 207 36148ft 480kts
16-Mar-18 04:33 46.009009 113.751806 207 36150ft 480kts
16-Mar-18 04:34 45.880362 113.698060 206 36152ft 481kts
16-Mar-18 04:35 45.752017 113.644716 206 36153ft 481kts
16-Mar-18 04:36 45.623161 113.591419 206 36154ft 480kts
16-Mar-18 04:37 45.473622 113.529884 206 36155ft 480kts
16-Mar-18 04:38 45.366825 113.486145 206 36156ft 480kts
16-Mar-18 04:39 45.238028 113.433624 206 36156ft 480kts
16-Mar-18 04:40 45.109707 113.381538 205 36156ft 481kts
16-Mar-18 04:41 44.981193 113.329444 205 36156ft 481kts
16-Mar-18 04:42 44.852183 113.277696 205 36141ft 480kts
16-Mar-18 04:43 44.718834 113.244834 191 36151ft 500kts
16-Mar-18 04:44 44.578810 113.242245 189 36143ft 501kts
16-Mar-18 04:45 44.439332 113.238087 190 36148ft 502kts
16-Mar-18 04:46 44.299871 113.233279 190 36143ft 502kts
16-Mar-18 04:47 44.159912 113.228485 190 36142ft 502kts
16-Mar-18 04:48 44.020491 113.223726 190 36142ft 502kts
16-Mar-18 04:49 43.880805 113.218987 189 36141ft 500kts
16-Mar-18 04:50 43.741908 113.214300 189 36140ft 501kts
16-Mar-18 04:51 43.602181 113.209604 189 36138ft 503kts
16-Mar-18 04:52 43.462042 113.204921 189 36137ft 503kts
16-Mar-18 04:53 43.321213 113.217497 175 36134ft 518kts
16-Mar-18 04:54 43.180544 113.263794 172 36134ft 521kts
16-Mar-18 04:55 43.039925 113.313444 172 36134ft 521kts
16-Mar-18 04:56 42.899569 113.362710 172 36152ft 523kts
16-Mar-18 04:57 42.758557 113.411961 171 36150ft 521kts
16-Mar-18 04:58 42.618273 113.460730 171 36149ft 521kts
16-Mar-18 04:59 42.477801 113.509344 171 36147ft 521kts
16-Mar-18 05:00 42.336978 113.557854 171 36147ft 521kts
16-Mar-18 05:01 42.196693 113.605940 171 36146ft 521kts
16-Mar-18 05:02 42.056458 113.653830 171 36152ft 520kts
16-Mar-18 05:03 41.915857 113.701572 171 36155ft 519kts
16-Mar-18 05:04 41.775934 113.748895 171 36155ft 519kts
16-Mar-18 05:05 41.635643 113.796119 171 36156ft 519kts
16-Mar-18 05:06 41.495768 113.843002 171 36160ft 518kts
16-Mar-18 05:07 41.356146 113.889591 171 36165ft 517kts
16-Mar-18 05:08 41.216331 113.936054 171 36172ft 517kts
16-Mar-18 05:09 41.077027 113.982119 171 36179ft 516kts
16-Mar-18 05:10 40.937798 114.027975 171 36189ft 518kts
16-Mar-18 05:11 40.797647 114.073925 171 36176ft 517kts
16-Mar-18 05:12 40.658371 114.119429 171 36193ft 515kts
16-Mar-18 05:13 40.519329 114.164603 172 36234ft 513kts
16-Mar-18 05:14 40.381147 114.209334 172 36247ft 512kts
16-Mar-18 05:15 40.242985 114.253875 172 36260ft 512kts
16-Mar-18 05:16 40.104374 114.298389 172 36276ft 512kts
16-Mar-18 05:17 39.966249 114.342543 172 36335ft 511kts
16-Mar-18 05:18 39.828252 114.386488 172 36344ft 511kts
16-Mar-18 05:19 39.689712 114.430436 172 36353ft 511kts
16-Mar-18 05:20 39.551524 114.474106 171 36362ft 512kts
16-Mar-18 05:21 39.412731 114.518500 171 36370ft 513kts
16-Mar-18 05:22 39.274384 114.562523 171 36380ft 513kts
16-Mar-18 05:23 39.135827 114.604438 176 36400ft 508kts
16-Mar-18 05:24 38.995636 114.620611 181 37169ft 504kts
16-Mar-18 05:25 38.856874 114.635258 180 38342ft 494kts
16-Mar-18 05:26 38.722131 114.650238 180 38418ft 481kts
16-Mar-18 05:27 38.588261 114.664976 180 38427ft 483kts
16-Mar-18 05:28 38.454557 114.679527 181 38433ft 483kts
16-Mar-18 05:29 38.320394 114.693729 180 38436ft 482kts
16-Mar-18 05:30 38.186815 114.708994 180 38436ft 483kts
16-Mar-18 05:31 38.053151 114.724827 180 38434ft 483kts
16-Mar-18 05:32 37.918847 114.740667 179 38429ft 484kts
16-Mar-18 05:33 37.784757 114.756511 179 38425ft 485kts
16-Mar-18 05:34 37.650544 114.772225 180 38436ft 485kts
16-Mar-18 05:35 37.515744 114.787930 180 38436ft 486kts
16-Mar-18 05:36 37.381105 114.803230 180 38435ft 486kts
16-Mar-18 05:37 37.245873 114.818472 180 38434ft 487kts
16-Mar-18 05:38 37.110737 114.833707 180 38433ft 488kts
16-Mar-18 05:39 36.975467 114.848923 180 38432ft 489kts
16-Mar-18 05:40 36.839552 114.864124 180 38430ft 490kts
16-Mar-18 05:41 36.703822 114.879249 180 38427ft 490kts
16-Mar-18 05:42 36.567546 114.894416 180 38419ft 490kts
16-Mar-18 05:43 36.431613 114.909432 180 38415ft 491kts
16-Mar-18 05:44 36.296286 114.913250 189 38412ft 484kts
16-Mar-18 05:45 36.161829 114.897422 190 38408ft 485kts
16-Mar-18 05:46 36.027449 114.883648 189 38404ft 485kts
16-Mar-18 05:47 35.892636 114.870171 189 38402ft 488kts
16-Mar-18 05:48 35.756980 114.856742 189 38398ft 488kts
16-Mar-18 05:49 35.621714 114.843413 189 38395ft 488kts
16-Mar-18 05:50 35.485829 114.830069 189 38392ft 489kts
16-Mar-18 05:51 35.350288 114.816804 189 38389ft 489kts
16-Mar-18 05:52 35.214437 114.803556 189 38388ft 491kts
16-Mar-18 05:53 35.077950 114.790291 189 38386ft 491kts
16-Mar-18 05:54 34.941732 114.777056 189 38384ft 492kts
16-Mar-18 05:55 34.805342 114.763906 189 38386ft 493kts
16-Mar-18 05:56 34.668166 114.750674 189 38376ft 493kts
16-Mar-18 05:57 34.531252 114.737270 189 38375ft 494kts
16-Mar-18 05:58 34.394221 114.723949 189 38374ft 495kts
16-Mar-18 05:59 34.256543 114.710690 189 38373ft 495kts
16-Mar-18 06:00 34.119199 114.697721 189 38372ft 496kts
16-Mar-18 06:01 33.981254 114.684716 189 38370ft 496kts
16-Mar-18 06:02 33.843223 114.671680 189 38369ft 499kts
16-Mar-18 06:03 33.704973 114.658739 189 38367ft 499kts
16-Mar-18 06:04 33.566182 114.645274 190 38364ft 499kts
16-Mar-18 06:05 33.427748 114.631659 190 38361ft 500kts
16-Mar-18 06:06 33.288719 114.618006 190 38358ft 500kts
16-Mar-18 06:07 33.149955 114.604395 190 38354ft 501kts
16-Mar-18 06:08 33.011019 114.590839 189 38350ft 502kts
16-Mar-18 06:09 32.871372 114.577255 189 38346ft 503kts
16-Mar-18 06:10 32.732015 114.563744 189 38341ft 503kts
16-Mar-18 06:11 32.592444 114.550226 189 38335ft 504kts
16-Mar-18 06:12 32.452245 114.536735 190 38331ft 505kts
16-Mar-18 06:13 32.312355 114.523333 189 38324ft 505kts
16-Mar-18 06:14 32.172369 114.510175 189 38316ft 505kts
16-Mar-18 06:15 32.031812 114.496975 189 38309ft 506kts
16-Mar-18 06:16 31.891527 114.483803 189 38302ft 506kts
16-Mar-18 06:17 31.750678 114.470674 189 38296ft 506kts
16-Mar-18 06:18 31.610363 114.457270 190 38290ft 506kts
16-Mar-18 06:19 31.470200 114.443850 190 38282ft 506kts
16-Mar-18 06:20 31.329419 114.430397 190 38276ft 506kts
16-Mar-18 06:21 31.192191 114.403173 196 38271ft 500kts
16-Mar-18 06:22 31.055008 114.372867 195 38267ft 500kts
16-Mar-18 06:23 30.918142 114.343689 195 38263ft 501kts
16-Mar-18 06:24 30.781312 114.314715 195 38260ft 500kts
16-Mar-18 06:25 30.643970 114.285790 195 38260ft 500kts
16-Mar-18 06:26 30.507204 114.257065 195 38256ft 500kts
16-Mar-18 06:27 30.370279 114.228403 195 38260ft 500kts
16-Mar-18 06:28 30.233111 114.199763 196 38260ft 500kts
16-Mar-18 06:29 30.096267 114.171270 195 38258ft 500kts
16-Mar-18 06:30 29.958986 114.142772 195 38260ft 500kts
16-Mar-18 06:31 29.822086 114.114424 195 38259ft 500kts
16-Mar-18 06:32 29.685127 114.086152 195 38257ft 501kts
16-Mar-18 06:33 29.547634 114.057847 196 38255ft 501kts
16-Mar-18 06:34 29.410552 114.029694 196 38252ft 501kts
16-Mar-18 06:35 29.273592 114.001658 196 38250ft 500kts
16-Mar-18 06:36 29.136223 113.973611 196 38247ft 500kts
16-Mar-18 06:37 28.999302 113.945726 196 38244ft 501kts
16-Mar-18 06:38 28.861773 113.917795 196 38240ft 501kts
16-Mar-18 06:39 28.747540 113.894654 196 38236ft 501kts
16-Mar-18 06:40 28.587540 113.862328 196 38234ft 500kts
16-Mar-18 06:41 28.472941 113.839231 196 38232ft 500kts
16-Mar-18 06:42 28.313137 113.807111 196 38231ft 500kts
16-Mar-18 06:43 28.198962 113.784223 196 38231ft 501kts
16-Mar-18 06:44 28.061412 113.756714 196 38227ft 501kts
16-Mar-18 06:45 27.924297 113.729362 196 38226ft 501kts
16-Mar-18 06:46 27.787156 113.702071 196 38225ft 501kts
16-Mar-18 06:47 27.649489 113.674747 196 38221ft 501kts
16-Mar-18 06:48 27.512298 113.647557 196 38220ft 501kts
16-Mar-18 06:49 27.374881 113.620469 196 38216ft 501kts
16-Mar-18 06:50 27.232956 113.636274 168 38213ft 531kts
16-Mar-18 06:51 27.091858 113.683804 171 38208ft 529kts
16-Mar-18 06:52 26.949346 113.726441 171 38202ft 529kts
16-Mar-18 06:53 26.807236 113.768820 171 38196ft 529kts
16-Mar-18 06:54 26.665128 113.811049 172 38186ft 528kts
16-Mar-18 06:55 26.522572 113.853305 172 38176ft 529kts
16-Mar-18 06:56 26.380357 113.895345 172 38167ft 529kts
16-Mar-18 06:57 26.237855 113.937434 172 38157ft 529kts
16-Mar-18 06:58 26.095740 113.979187 172 38146ft 529kts
16-Mar-18 06:59 25.953597 114.021006 172 38136ft 529kts
16-Mar-18 07:00 25.810965 114.063060 172 38126ft 529kts
16-Mar-18 07:01 25.668713 114.104941 172 38120ft 530kts
16-Mar-18 07:02 25.526565 114.146795 172 38126ft 528kts
16-Mar-18 07:03 25.383985 114.188627 172 38118ft 529kts
16-Mar-18 07:04 25.241885 114.230187 172 38112ft 528kts
16-Mar-18 07:05 25.099183 114.267903 182 38104ft 516kts
16-Mar-18 07:06 24.963568 114.246867 202 38101ft 489kts
16-Mar-18 07:07 24.829921 114.215493 200 38090ft 492kts
16-Mar-18 07:08 24.695243 114.186412 200 38082ft 492kts
16-Mar-18 07:09 24.624755 114.171138 200 38079ft 492kts
16-Mar-18 07:10 24.490596 114.142220 200 38070ft 491kts
16-Mar-18 07:11 24.356119 114.113337 200 38065ft 491kts
16-Mar-18 07:12 24.225947 114.074865 205 38039ft 485kts
16-Mar-18 07:13 24.095601 114.035557 204 38038ft 485kts
16-Mar-18 07:14 23.965748 113.996334 204 38036ft 484kts
16-Mar-18 07:15 23.836029 113.956784 204 38034ft 484kts
16-Mar-18 07:16 23.705884 113.917054 204 38035ft 484kts
16-Mar-18 07:17 23.576156 113.877673 204 38033ft 485kts
16-Mar-18 07:18 23.446519 113.838408 204 38032ft 483kts
16-Mar-18 07:19 23.316585 113.799153 204 38035ft 484kts
16-Mar-18 07:20 23.187143 113.760074 204 38035ft 482kts
16-Mar-18 07:21 23.169855 113.754830 204 38041ft 482kts
16-Mar-18 07:22 23.089846 113.730660 204 38038ft 483kts
16-Mar-18 07:23 22.961708 113.692134 204 37857ft 463kts
16-Mar-18 07:24 22.836841 113.654543 204 34763ft 467kts
16-Mar-18 07:25 22.711759 113.616425 204 31876ft 468kts
16-Mar-18 07:26 22.587419 113.578771 203 29300ft 460kts
16-Mar-18 07:27 22.465388 113.541507 202 26846ft 449kts
16-Mar-18 07:28 22.346059 113.504958 201 24536ft 459kts
16-Mar-18 07:29 22.224434 113.476766 182 22159ft 439kts
16-Mar-18 07:30 22.109174 113.507446 164 19912ft 418kts
16-Mar-18 07:31 22.005790 113.546178 166 19105ft 376kts
16-Mar-18 07:32 21.910362 113.587321 161 17596ft 366kts
16-Mar-18 07:33 21.817973 113.630519 161 15863ft 359kts
16-Mar-18 07:34 21.727517 113.671881 160 14400ft 347kts
16-Mar-18 07:35 21.677610 113.753028 82 12776ft 350kts
16-Mar-18 07:36 21.740754 113.816137 6 11280ft 321kts
16-Mar-18 07:37 21.813554 113.866942 42 10661ft 322kts
16-Mar-18 07:38 21.893750 113.881750 341 9702ft 287kts
16-Mar-18 07:39 21.964441 113.847190 334 8596ft 278kts
16-Mar-18 07:40 22.032158 113.813106 335 7382ft 252kts
16-Mar-18 07:41 22.093651 113.782444 336 5961ft 231kts
16-Mar-18 07:42 22.148534 113.754850 336 4570ft 207kts
16-Mar-18 07:43 22.198517 113.730867 351 3302ft 187kts
16-Mar-18 07:44 22.242766 113.755142 33 2727ft 184kts
16-Mar-18 07:45 22.278807 113.788373 66 2062ft 161kts
16-Mar-18 07:46 22.291046 113.831912 73 1600ft 145kts
16-Mar-18 07:47 22.302780 113.872720 71 612ft 141kts
16-Mar-18 07:48 22.315040 113.910812 69 42ft 88kts
16-Mar-18 07:49 22.317831 113.922402 107 41ft 10kts
16-Mar-18 07:50 22.317158 113.924255 138 41ft 2kts
16-Mar-18 07:51 22.317154 113.924259 138 41ft 0kts
16-Mar-18 07:52 22.316185 113.923008 253 41ft 8kts
16-Mar-18 07:53 22.315531 113.920975 239 41ft 6kts
16-Mar-18 07:54 22.313596 113.922568 115 41ft 14kts
16-Mar-18 07:55 22.311447 113.924846 202 41ft 7kts
16-Mar-18 07:56 22.310813 113.925472 117 41ft 2kts
16-Mar-18 07:57 22.310763 113.925574 117 41ft 0kts
16-Mar-18 07:58 22.310758 113.925586 117 41ft 0kts
16-Mar-18 07:59 22.310758 113.925586 117 41ft 0kts
16-Mar-18 08:00 22.310758 113.925586 117 41ft 0kts
16-Mar-18 08:01 22.310758 113.925586 117 41ft 0kts
16-Mar-18 08:02 22.310758 113.925586 117 41ft 0kts
16-Mar-18 08:03 22.310758 113.925586 117 41ft 0kts

Navigation Log

Ident Type
Flight plan parsing failed, navigation log unavailable